sensor_id;sensor_type;location;lat;lon;timestamp;pressure;altitude;pressure_sealevel;temperature;humidity
61528;BME280;47395;42.032;-8.634;2024-02-15T00:01:56;74487.34;;;-148.63;35.00
61528;BME280;47395;42.032;-8.634;2024-02-15T00:03:57;74421.31;;;-148.63;34.19
61528;BME280;47395;42.032;-8.634;2024-02-15T00:05:58;74353.31;;;-148.63;33.87
61528;BME280;47395;42.032;-8.634;2024-02-15T00:07:59;74331.31;;;-148.63;33.84
61528;BME280;47395;42.032;-8.634;2024-02-15T00:10:00;74337.31;;;-148.63;33.70
61528;BME280;47395;42.032;-8.634;2024-02-15T00:12:01;74355.31;;;-148.63;33.89
61528;BME280;47395;42.032;-8.634;2024-02-15T00:14:02;74545.34;;;-148.63;35.78
61528;BME280;47395;42.032;-8.634;2024-02-15T00:16:03;74749.34;;;-148.63;37.63
61528;BME280;47395;42.032;-8.634;2024-02-15T00:18:04;74629.34;;;-148.63;36.75
61528;BME280;47395;42.032;-8.634;2024-02-15T00:20:06;74545.34;;;-148.63;36.45
61528;BME280;47395;42.032;-8.634;2024-02-15T00:22:09;74457.34;;;-148.63;35.24
61528;BME280;47395;42.032;-8.634;2024-02-15T00:24:10;74483.34;;;-148.63;35.26
61528;BME280;47395;42.032;-8.634;2024-02-15T00:26:12;74437.31;;;-148.63;35.14
61528;BME280;47395;42.032;-8.634;2024-02-15T00:28:13;74447.31;;;-148.63;34.99
61528;BME280;47395;42.032;-8.634;2024-02-15T00:30:13;74493.34;;;-148.63;35.34
61528;BME280;47395;42.032;-8.634;2024-02-15T00:32:14;74477.34;;;-148.63;35.90
61528;BME280;47395;42.032;-8.634;2024-02-15T00:34:15;74505.34;;;-148.63;36.00
61528;BME280;47395;42.032;-8.634;2024-02-15T00:36:17;74503.34;;;-148.63;36.12
61528;BME280;47395;42.032;-8.634;2024-02-15T00:38:18;74461.34;;;-148.63;35.58
61528;BME280;47395;42.032;-8.634;2024-02-15T00:40:19;74427.31;;;-148.63;35.78
61528;BME280;47395;42.032;-8.634;2024-02-15T00:42:21;74417.31;;;-148.63;35.76
61528;BME280;47395;42.032;-8.634;2024-02-15T00:44:22;74415.31;;;-148.63;35.46
61528;BME280;47395;42.032;-8.634;2024-02-15T00:46:23;74419.31;;;-148.63;35.75
61528;BME280;47395;42.032;-8.634;2024-02-15T00:48:24;74423.31;;;-148.63;36.14
61528;BME280;47395;42.032;-8.634;2024-02-15T00:50:26;74387.31;;;-148.63;35.91
61528;BME280;47395;42.032;-8.634;2024-02-15T00:52:27;74343.31;;;-148.63;35.62
61528;BME280;47395;42.032;-8.634;2024-02-15T00:54:30;74333.31;;;-148.63;35.41
61528;BME280;47395;42.032;-8.634;2024-02-15T00:56:31;74325.31;;;-148.63;35.79
61528;BME280;47395;42.032;-8.634;2024-02-15T00:58:33;74337.31;;;-148.63;35.35
61528;BME280;47395;42.032;-8.634;2024-02-15T01:00:34;74329.31;;;-148.63;35.51
61528;BME280;47395;42.032;-8.634;2024-02-15T01:02:35;74513.34;;;-148.63;36.85
61528;BME280;47395;42.032;-8.634;2024-02-15T01:04:36;74343.31;;;-148.63;35.92
61528;BME280;47395;42.032;-8.634;2024-02-15T01:06:37;74349.31;;;-148.63;35.09
61528;BME280;47395;42.032;-8.634;2024-02-15T01:08:38;74365.31;;;-148.63;36.28
61528;BME280;47395;42.032;-8.634;2024-02-15T01:10:39;74363.31;;;-148.63;36.20
61528;BME280;47395;42.032;-8.634;2024-02-15T01:12:40;74433.31;;;-148.63;37.18
61528;BME280;47395;42.032;-8.634;2024-02-15T01:14:41;74445.31;;;-148.63;36.93
61528;BME280;47395;42.032;-8.634;2024-02-15T01:16:44;74463.34;;;-148.63;37.50
61528;BME280;47395;42.032;-8.634;2024-02-15T01:18:47;74417.31;;;-148.63;36.75
61528;BME280;47395;42.032;-8.634;2024-02-15T01:20:48;74461.34;;;-148.63;37.22
61528;BME280;47395;42.032;-8.634;2024-02-15T01:22:49;74589.34;;;-148.63;38.77
61528;BME280;47395;42.032;-8.634;2024-02-15T01:24:52;74553.34;;;-148.63;38.42
61528;BME280;47395;42.032;-8.634;2024-02-15T01:26:53;74477.34;;;-148.63;37.51
61528;BME280;47395;42.032;-8.634;2024-02-15T01:28:55;74421.31;;;-148.63;36.99
61528;BME280;47395;42.032;-8.634;2024-02-15T01:30:56;74369.31;;;-148.63;36.90
61528;BME280;47395;42.032;-8.634;2024-02-15T01:32:57;74407.31;;;-148.63;36.92
61528;BME280;47395;42.032;-8.634;2024-02-15T01:34:58;74425.31;;;-148.63;37.09
61528;BME280;47395;42.032;-8.634;2024-02-15T01:36:59;74457.34;;;-148.63;37.29
61528;BME280;47395;42.032;-8.634;2024-02-15T01:39:00;74487.34;;;-148.63;37.73
61528;BME280;47395;42.032;-8.634;2024-02-15T01:41:02;74415.31;;;-148.63;37.08
61528;BME280;47395;42.032;-8.634;2024-02-15T01:43:03;74397.31;;;-148.63;36.69
61528;BME280;47395;42.032;-8.634;2024-02-15T01:45:05;74427.31;;;-148.63;36.80
61528;BME280;47395;42.032;-8.634;2024-02-15T01:47:07;74393.31;;;-148.63;36.86
61528;BME280;47395;42.032;-8.634;2024-02-15T01:49:09;74471.34;;;-148.63;37.64
61528;BME280;47395;42.032;-8.634;2024-02-15T01:51:11;74483.34;;;-148.63;37.63
61528;BME280;47395;42.032;-8.634;2024-02-15T01:53:13;74461.34;;;-148.63;37.00
61528;BME280;47395;42.032;-8.634;2024-02-15T01:55:15;74467.34;;;-148.63;36.94
61528;BME280;47395;42.032;-8.634;2024-02-15T01:57:19;74357.31;;;-148.63;36.26
61528;BME280;47395;42.032;-8.634;2024-02-15T01:59:23;74337.31;;;-148.63;36.04
61528;BME280;47395;42.032;-8.634;2024-02-15T02:01:25;74397.31;;;-148.63;36.42
61528;BME280;47395;42.032;-8.634;2024-02-15T02:03:27;74449.31;;;-148.63;36.96
61528;BME280;47395;42.032;-8.634;2024-02-15T02:05:28;74499.34;;;-148.63;37.35
61528;BME280;47395;42.032;-8.634;2024-02-15T02:07:31;74401.31;;;-148.63;36.64
61528;BME280;47395;42.032;-8.634;2024-02-15T02:09:32;74333.31;;;-148.63;36.17
61528;BME280;47395;42.032;-8.634;2024-02-15T02:11:33;74345.31;;;-148.63;36.28
61528;BME280;47395;42.032;-8.634;2024-02-15T02:13:34;74567.34;;;-148.63;38.72
61528;BME280;47395;42.032;-8.634;2024-02-15T02:15:35;74403.31;;;-148.63;37.15
61528;BME280;47395;42.032;-8.634;2024-02-15T02:17:37;74333.31;;;-148.63;36.50
61528;BME280;47395;42.032;-8.634;2024-02-15T02:19:42;74391.31;;;-148.63;36.87
61528;BME280;47395;42.032;-8.634;2024-02-15T02:21:44;74337.31;;;-148.63;36.31
61528;BME280;47395;42.032;-8.634;2024-02-15T02:23:47;74357.31;;;-148.63;36.36
61528;BME280;47395;42.032;-8.634;2024-02-15T02:25:52;74353.31;;;-148.63;36.29
61528;BME280;47395;42.032;-8.634;2024-02-15T02:27:56;74399.31;;;-148.63;36.87
61528;BME280;47395;42.032;-8.634;2024-02-15T02:29:57;74321.31;;;-148.63;36.37
61528;BME280;47395;42.032;-8.634;2024-02-15T02:31:59;74349.31;;;-148.63;36.31
61528;BME280;47395;42.032;-8.634;2024-02-15T02:34:00;74347.31;;;-148.63;36.19
61528;BME280;47395;42.032;-8.634;2024-02-15T02:36:01;74353.31;;;-148.63;36.55
61528;BME280;47395;42.032;-8.634;2024-02-15T02:38:03;74361.31;;;-148.63;36.42
61528;BME280;47395;42.032;-8.634;2024-02-15T02:40:08;74425.31;;;-148.63;36.98
61528;BME280;47395;42.032;-8.634;2024-02-15T02:42:09;74427.31;;;-148.63;37.20
61528;BME280;47395;42.032;-8.634;2024-02-15T02:44:10;74505.34;;;-148.63;37.68
61528;BME280;47395;42.032;-8.634;2024-02-15T02:46:11;74447.31;;;-148.63;37.15
61528;BME280;47395;42.032;-8.634;2024-02-15T02:48:13;74489.34;;;-148.63;37.35
61528;BME280;47395;42.032;-8.634;2024-02-15T02:50:14;74441.31;;;-148.63;37.21
61528;BME280;47395;42.032;-8.634;2024-02-15T02:52:14;74391.31;;;-148.63;36.77
61528;BME280;47395;42.032;-8.634;2024-02-15T02:54:16;74365.31;;;-148.63;36.67
61528;BME280;47395;42.032;-8.634;2024-02-15T02:56:16;74361.31;;;-148.63;36.42
61528;BME280;47395;42.032;-8.634;2024-02-15T02:58:19;74423.31;;;-148.63;36.97
61528;BME280;47395;42.032;-8.634;2024-02-15T03:00:20;74401.31;;;-148.63;36.77
61528;BME280;47395;42.032;-8.634;2024-02-15T03:02:21;74393.31;;;-148.63;36.77
61528;BME280;47395;42.032;-8.634;2024-02-15T03:04:23;74399.31;;;-148.63;36.50
61528;BME280;47395;42.032;-8.634;2024-02-15T03:06:24;74615.34;;;-148.63;38.55
61528;BME280;47395;42.032;-8.634;2024-02-15T03:08:28;74489.34;;;-148.63;37.87
61528;BME280;47395;42.032;-8.634;2024-02-15T03:10:29;74477.34;;;-148.63;37.40
61528;BME280;47395;42.032;-8.634;2024-02-15T03:12:30;74421.31;;;-148.63;36.87
61528;BME280;47395;42.032;-8.634;2024-02-15T03:14:32;74643.34;;;-148.63;39.17
61528;BME280;47395;42.032;-8.634;2024-02-15T03:16:35;74545.34;;;-148.63;38.19
61528;BME280;47395;42.032;-8.634;2024-02-15T03:18:36;74459.34;;;-148.63;37.15
61528;BME280;47395;42.032;-8.634;2024-02-15T03:20:37;74421.31;;;-148.63;36.88
61528;BME280;47395;42.032;-8.634;2024-02-15T03:22:38;74665.34;;;-148.63;39.38
61528;BME280;47395;42.032;-8.634;2024-02-15T03:24:39;74595.34;;;-148.63;38.64
61528;BME280;47395;42.032;-8.634;2024-02-15T03:26:40;74493.34;;;-148.63;37.95
61528;BME280;47395;42.032;-8.634;2024-02-15T03:28:43;74535.34;;;-148.63;38.06
61528;BME280;47395;42.032;-8.634;2024-02-15T03:30:45;74475.34;;;-148.63;37.44
61528;BME280;47395;42.032;-8.634;2024-02-15T03:32:48;74453.34;;;-148.63;37.27
61528;BME280;47395;42.032;-8.634;2024-02-15T03:34:51;74493.34;;;-148.63;37.54
61528;BME280;47395;42.032;-8.634;2024-02-15T03:36:55;74473.34;;;-148.63;37.24
61528;BME280;47395;42.032;-8.634;2024-02-15T03:38:56;74471.34;;;-148.63;37.27
61528;BME280;47395;42.032;-8.634;2024-02-15T03:40:59;74467.34;;;-148.63;36.91
61528;BME280;47395;42.032;-8.634;2024-02-15T03:43:00;74461.34;;;-148.63;37.19
61528;BME280;47395;42.032;-8.634;2024-02-15T03:45:02;74399.31;;;-148.63;36.23
61528;BME280;47395;42.032;-8.634;2024-02-15T03:47:03;74481.34;;;-148.63;37.38
61528;BME280;47395;42.032;-8.634;2024-02-15T03:49:05;74503.34;;;-148.63;37.66
61528;BME280;47395;42.032;-8.634;2024-02-15T03:51:08;74499.34;;;-148.63;38.10
61528;BME280;47395;42.032;-8.634;2024-02-15T03:53:10;74481.34;;;-148.63;37.78
61528;BME280;47395;42.032;-8.634;2024-02-15T03:55:14;74481.34;;;-148.63;37.76
61528;BME280;47395;42.032;-8.634;2024-02-15T03:57:16;74499.34;;;-148.63;37.85
61528;BME280;47395;42.032;-8.634;2024-02-15T03:59:18;74469.34;;;-148.63;37.20
61528;BME280;47395;42.032;-8.634;2024-02-15T04:01:22;74467.34;;;-148.63;37.39
61528;BME280;47395;42.032;-8.634;2024-02-15T04:03:23;74463.34;;;-148.63;37.38
61528;BME280;47395;42.032;-8.634;2024-02-15T04:05:24;74473.34;;;-148.63;37.25
61528;BME280;47395;42.032;-8.634;2024-02-15T04:07:25;74445.31;;;-148.63;37.25
61528;BME280;47395;42.032;-8.634;2024-02-15T04:09:27;74439.31;;;-148.63;37.12
61528;BME280;47395;42.032;-8.634;2024-02-15T04:11:28;74501.34;;;-148.63;37.79
61528;BME280;47395;42.032;-8.634;2024-02-15T04:13:29;74491.34;;;-148.63;38.06
61528;BME280;47395;42.032;-8.634;2024-02-15T04:15:30;74543.34;;;-148.63;38.47
61528;BME280;47395;42.032;-8.634;2024-02-15T04:17:32;74511.34;;;-148.63;38.32
61528;BME280;47395;42.032;-8.634;2024-02-15T04:19:35;74417.31;;;-148.63;37.76
61528;BME280;47395;42.032;-8.634;2024-02-15T04:21:37;74545.34;;;-148.63;38.69
61528;BME280;47395;42.032;-8.634;2024-02-15T04:23:40;74523.34;;;-148.63;38.48
61528;BME280;47395;42.032;-8.634;2024-02-15T04:25:41;74537.34;;;-148.63;38.91
61528;BME280;47395;42.032;-8.634;2024-02-15T04:27:45;74435.31;;;-148.63;37.87
61528;BME280;47395;42.032;-8.634;2024-02-15T04:29:50;74409.31;;;-148.63;37.34
61528;BME280;47395;42.032;-8.634;2024-02-15T04:31:51;74369.31;;;-148.63;36.93
61528;BME280;47395;42.032;-8.634;2024-02-15T04:33:55;74341.31;;;-148.63;36.75
61528;BME280;47395;42.032;-8.634;2024-02-15T04:35:57;74339.31;;;-148.63;36.52
61528;BME280;47395;42.032;-8.634;2024-02-15T04:37:59;74353.31;;;-148.63;36.47
61528;BME280;47395;42.032;-8.634;2024-02-15T04:40:00;74307.31;;;-148.63;36.08
61528;BME280;47395;42.032;-8.634;2024-02-15T04:42:08;74451.31;;;-148.63;37.54
61528;BME280;47395;42.032;-8.634;2024-02-15T04:44:12;74331.31;;;-148.63;36.52
61528;BME280;47395;42.032;-8.634;2024-02-15T04:46:13;74329.31;;;-148.63;36.36
61528;BME280;47395;42.032;-8.634;2024-02-15T04:48:15;74319.31;;;-148.63;36.56
61528;BME280;47395;42.032;-8.634;2024-02-15T04:50:17;74473.34;;;-148.63;38.22
61528;BME280;47395;42.032;-8.634;2024-02-15T04:52:20;74379.31;;;-148.63;37.31
61528;BME280;47395;42.032;-8.634;2024-02-15T04:54:24;74383.31;;;-148.63;37.32
61528;BME280;47395;42.032;-8.634;2024-02-15T04:56:25;74473.34;;;-148.63;38.15
61528;BME280;47395;42.032;-8.634;2024-02-15T04:58:27;74449.31;;;-148.63;37.76
61528;BME280;47395;42.032;-8.634;2024-02-15T05:00:29;74381.31;;;-148.63;37.03
61528;BME280;47395;42.032;-8.634;2024-02-15T05:07:42;74443.31;;;-148.63;37.50
61528;BME280;47395;42.032;-8.634;2024-02-15T05:09:45;74377.31;;;-148.63;36.94
61528;BME280;47395;42.032;-8.634;2024-02-15T05:11:46;74341.31;;;-148.63;36.77
61528;BME280;47395;42.032;-8.634;2024-02-15T05:13:48;74451.31;;;-148.63;37.92
61528;BME280;47395;42.032;-8.634;2024-02-15T05:15:52;74481.34;;;-148.63;38.11
61528;BME280;47395;42.032;-8.634;2024-02-15T05:17:53;74481.34;;;-148.63;38.14
61528;BME280;47395;42.032;-8.634;2024-02-15T05:19:54;74411.31;;;-148.63;37.21
61528;BME280;47395;42.032;-8.634;2024-02-15T05:21:59;74543.34;;;-148.63;38.28
61528;BME280;47395;42.032;-8.634;2024-02-15T05:24:01;74725.34;;;-148.63;38.61
61528;BME280;47395;42.032;-8.634;2024-02-15T05:26:03;74693.34;;;-148.63;38.22
61528;BME280;47395;42.032;-8.634;2024-02-15T05:28:04;74645.34;;;-148.63;37.45
61528;BME280;47395;42.032;-8.634;2024-02-15T05:30:10;74647.34;;;-148.63;37.39
61528;BME280;47395;42.032;-8.634;2024-02-15T05:32:12;74579.34;;;-148.63;36.74
61528;BME280;47395;42.032;-8.634;2024-02-15T05:34:15;74627.34;;;-148.63;36.94
61528;BME280;47395;42.032;-8.634;2024-02-15T05:36:18;74593.34;;;-148.63;36.59
61528;BME280;47395;42.032;-8.634;2024-02-15T05:38:22;74577.34;;;-148.63;36.56
61528;BME280;47395;42.032;-8.634;2024-02-15T05:40:24;74557.34;;;-148.63;36.58
61528;BME280;47395;42.032;-8.634;2024-02-15T05:42:25;74517.34;;;-148.63;36.31
61528;BME280;47395;42.032;-8.634;2024-02-15T05:44:27;74579.34;;;-148.63;37.21
61528;BME280;47395;42.032;-8.634;2024-02-15T05:46:28;74585.34;;;-148.63;36.99
61528;BME280;47395;42.032;-8.634;2024-02-15T05:48:29;74621.34;;;-148.63;37.34
61528;BME280;47395;42.032;-8.634;2024-02-15T05:50:30;74621.34;;;-148.63;37.47
61528;BME280;47395;42.032;-8.634;2024-02-15T05:52:31;74577.34;;;-148.63;37.23
61528;BME280;47395;42.032;-8.634;2024-02-15T05:54:32;74609.34;;;-148.63;37.49
61528;BME280;47395;42.032;-8.634;2024-02-15T05:56:34;74575.34;;;-148.63;37.19
61528;BME280;47395;42.032;-8.634;2024-02-15T05:58:35;74573.34;;;-148.63;37.34
61528;BME280;47395;42.032;-8.634;2024-02-15T06:00:37;74571.34;;;-148.63;37.32
61528;BME280;47395;42.032;-8.634;2024-02-15T06:02:39;74631.34;;;-148.63;37.92
61528;BME280;47395;42.032;-8.634;2024-02-15T06:04:41;74583.34;;;-148.63;37.44
61528;BME280;47395;42.032;-8.634;2024-02-15T06:06:42;74473.34;;;-148.63;36.45
61528;BME280;47395;42.032;-8.634;2024-02-15T06:08:46;74613.34;;;-148.63;37.62
61528;BME280;47395;42.032;-8.634;2024-02-15T06:10:47;74575.34;;;-148.63;37.32
61528;BME280;47395;42.032;-8.634;2024-02-15T06:12:49;74523.34;;;-148.63;36.69
61528;BME280;47395;42.032;-8.634;2024-02-15T06:14:50;74491.34;;;-148.63;36.28
61528;BME280;47395;42.032;-8.634;2024-02-15T06:16:51;74531.34;;;-148.63;37.04
61528;BME280;47395;42.032;-8.634;2024-02-15T06:18:54;74525.34;;;-148.63;36.83
61528;BME280;47395;42.032;-8.634;2024-02-15T06:20:56;74529.34;;;-148.63;36.72
61528;BME280;47395;42.032;-8.634;2024-02-15T06:23:03;74537.34;;;-148.63;37.11
61528;BME280;47395;42.032;-8.634;2024-02-15T06:25:07;74539.34;;;-148.63;37.04
61528;BME280;47395;42.032;-8.634;2024-02-15T06:27:08;74499.34;;;-148.63;36.79
61528;BME280;47395;42.032;-8.634;2024-02-15T06:29:10;74541.34;;;-148.63;37.13
61528;BME280;47395;42.032;-8.634;2024-02-15T06:31:31;74569.34;;;-148.63;36.98
61528;BME280;47395;42.032;-8.634;2024-02-15T06:33:50;74517.34;;;-148.63;36.95
61528;BME280;47395;42.032;-8.634;2024-02-15T06:36:10;74333.31;;;-148.63;35.13
61528;BME280;47395;42.032;-8.634;2024-02-15T06:38:29;74389.31;;;-148.63;35.49
61528;BME280;47395;42.032;-8.634;2024-02-15T06:40:49;74405.31;;;-148.63;35.77
61528;BME280;47395;42.032;-8.634;2024-02-15T06:42:50;74517.34;;;-148.63;36.72
61528;BME280;47395;42.032;-8.634;2024-02-15T06:44:51;74553.34;;;-148.63;38.41
61528;BME280;47395;42.032;-8.634;2024-02-15T06:46:53;74633.34;;;-148.63;39.95
61528;BME280;47395;42.032;-8.634;2024-02-15T06:48:54;74777.34;;;-148.63;42.18
61528;BME280;47395;42.032;-8.634;2024-02-15T06:50:55;74719.34;;;-148.63;41.96
61528;BME280;47395;42.032;-8.634;2024-02-15T06:52:57;74671.34;;;-148.63;41.34
61528;BME280;47395;42.032;-8.634;2024-02-15T06:54:58;74779.34;;;-148.63;43.25
61528;BME280;47395;42.032;-8.634;2024-02-15T06:56:59;74739.34;;;-148.63;43.08
61528;BME280;47395;42.032;-8.634;2024-02-15T06:59:01;74663.34;;;-148.63;42.08
61528;BME280;47395;42.032;-8.634;2024-02-15T07:01:02;74677.34;;;-148.63;42.16
61528;BME280;47395;42.032;-8.634;2024-02-15T07:03:04;74773.34;;;-148.63;43.20
61528;BME280;47395;42.032;-8.634;2024-02-15T07:05:05;74641.34;;;-148.63;42.06
61528;BME280;47395;42.032;-8.634;2024-02-15T07:07:06;74711.34;;;-148.63;42.68
61528;BME280;47395;42.032;-8.634;2024-02-15T07:09:08;74775.34;;;-148.63;43.25
61528;BME280;47395;42.032;-8.634;2024-02-15T07:11:10;74777.34;;;-148.63;44.00
61528;BME280;47395;42.032;-8.634;2024-02-15T07:13:12;74733.34;;;-148.63;43.96
61528;BME280;47395;42.032;-8.634;2024-02-15T07:15:17;74783.34;;;-148.63;44.09
61528;BME280;47395;42.032;-8.634;2024-02-15T07:17:18;74685.34;;;-148.63;43.24
61528;BME280;47395;42.032;-8.634;2024-02-15T07:19:20;74695.34;;;-148.63;43.24
61528;BME280;47395;42.032;-8.634;2024-02-15T07:21:21;74683.34;;;-148.63;42.92
61528;BME280;47395;42.032;-8.634;2024-02-15T07:23:27;74657.34;;;-148.63;42.66
61528;BME280;47395;42.032;-8.634;2024-02-15T07:25:28;74677.34;;;-148.63;42.87
61528;BME280;47395;42.032;-8.634;2024-02-15T07:27:29;74729.34;;;-148.63;43.55
61528;BME280;47395;42.032;-8.634;2024-02-15T07:29:30;74693.34;;;-148.63;43.21
61528;BME280;47395;42.032;-8.634;2024-02-15T07:31:52;74711.34;;;-148.63;43.06
61528;BME280;47395;42.032;-8.634;2024-02-15T07:33:54;74767.34;;;-148.63;43.90
61528;BME280;47395;42.032;-8.634;2024-02-15T07:35:56;74771.34;;;-148.63;43.98
61528;BME280;47395;42.032;-8.634;2024-02-15T07:37:57;74723.34;;;-148.63;43.52
61528;BME280;47395;42.032;-8.634;2024-02-15T07:39:59;74827.34;;;-148.63;44.96
61528;BME280;47395;42.032;-8.634;2024-02-15T07:42:01;74841.34;;;-148.63;44.99
61528;BME280;47395;42.032;-8.634;2024-02-15T07:44:02;74837.34;;;-148.63;45.10
61528;BME280;47395;42.032;-8.634;2024-02-15T07:46:03;74823.34;;;-148.63;44.67
61528;BME280;47395;42.032;-8.634;2024-02-15T07:48:05;74767.34;;;-148.63;44.15
61528;BME280;47395;42.032;-8.634;2024-02-15T07:50:06;74853.34;;;-148.63;45.06
61528;BME280;47395;42.032;-8.634;2024-02-15T07:52:10;74833.34;;;-148.63;45.36
61528;BME280;47395;42.032;-8.634;2024-02-15T07:54:11;74841.34;;;-148.63;44.67
61528;BME280;47395;42.032;-8.634;2024-02-15T07:56:15;74875.38;;;-148.63;45.51
61528;BME280;47395;42.032;-8.634;2024-02-15T07:58:16;74853.34;;;-148.63;45.25
61528;BME280;47395;42.032;-8.634;2024-02-15T08:00:19;74863.38;;;-148.63;45.75
61528;BME280;47395;42.032;-8.634;2024-02-15T08:02:20;74719.34;;;-148.63;44.10
61528;BME280;47395;42.032;-8.634;2024-02-15T08:04:22;74763.34;;;-148.63;44.32
61528;BME280;47395;42.032;-8.634;2024-02-15T08:06:25;74769.34;;;-148.63;44.16
61528;BME280;47395;42.032;-8.634;2024-02-15T08:08:28;74735.34;;;-148.63;44.07
61528;BME280;47395;42.032;-8.634;2024-02-15T08:10:29;74809.34;;;-148.63;44.19
61528;BME280;47395;42.032;-8.634;2024-02-15T08:12:30;74873.38;;;-148.63;45.34
61528;BME280;47395;42.032;-8.634;2024-02-15T08:14:31;74817.34;;;-148.63;44.75
61528;BME280;47395;42.032;-8.634;2024-02-15T08:16:32;74859.38;;;-148.63;45.16
61528;BME280;47395;42.032;-8.634;2024-02-15T08:18:34;74805.34;;;-148.63;44.77
61528;BME280;47395;42.032;-8.634;2024-02-15T08:20:36;74775.34;;;-148.63;44.61
61528;BME280;47395;42.032;-8.634;2024-02-15T08:22:37;74797.34;;;-148.63;44.69
61528;BME280;47395;42.032;-8.634;2024-02-15T08:24:42;74821.34;;;-148.63;45.15
61528;BME280;47395;42.032;-8.634;2024-02-15T08:26:44;74759.34;;;-148.63;44.55
61528;BME280;47395;42.032;-8.634;2024-02-15T08:28:45;74749.34;;;-148.63;44.20
61528;BME280;47395;42.032;-8.634;2024-02-15T08:30:47;74733.34;;;-148.63;44.14
61528;BME280;47395;42.032;-8.634;2024-02-15T08:32:48;74875.38;;;-148.63;46.30
61528;BME280;47395;42.032;-8.634;2024-02-15T08:34:49;74767.34;;;-148.63;44.93
61528;BME280;47395;42.032;-8.634;2024-02-15T08:36:51;74749.34;;;-148.63;44.83
61528;BME280;47395;42.032;-8.634;2024-02-15T08:38:52;74767.34;;;-148.63;45.18
61528;BME280;47395;42.032;-8.634;2024-02-15T08:40:53;74811.34;;;-148.63;46.24
61528;BME280;47395;42.032;-8.634;2024-02-15T08:42:54;74809.34;;;-148.63;46.11
61528;BME280;47395;42.032;-8.634;2024-02-15T08:44:57;74767.34;;;-148.63;45.59
61528;BME280;47395;42.032;-8.634;2024-02-15T08:46:59;74715.34;;;-148.63;44.85
61528;BME280;47395;42.032;-8.634;2024-02-15T08:49:00;74823.34;;;-148.63;45.95
61528;BME280;47395;42.032;-8.634;2024-02-15T08:51:02;74831.34;;;-148.63;46.00
61528;BME280;47395;42.032;-8.634;2024-02-15T08:53:04;74857.38;;;-148.63;46.82
61528;BME280;47395;42.032;-8.634;2024-02-15T08:55:11;74909.38;;;-148.63;47.35
61528;BME280;47395;42.032;-8.634;2024-02-15T08:57:14;74941.38;;;-148.63;47.63
61528;BME280;47395;42.032;-8.634;2024-02-15T08:59:15;74945.38;;;-148.63;47.66
61528;BME280;47395;42.032;-8.634;2024-02-15T09:01:18;75021.38;;;-148.63;48.61
61528;BME280;47395;42.032;-8.634;2024-02-15T09:03:19;75025.38;;;-148.63;48.41
61528;BME280;47395;42.032;-8.634;2024-02-15T09:05:20;74995.38;;;-148.63;46.71
61528;BME280;47395;42.032;-8.634;2024-02-15T09:07:23;74965.38;;;-148.63;45.64
61528;BME280;47395;42.032;-8.634;2024-02-15T09:09:24;75009.38;;;-148.63;45.63
61528;BME280;47395;42.032;-8.634;2024-02-15T09:11:31;75027.38;;;-148.63;44.75
61528;BME280;47395;42.032;-8.634;2024-02-15T09:13:32;75037.38;;;-148.63;44.89
61528;BME280;47395;42.032;-8.634;2024-02-15T09:15:38;75151.41;;;-148.63;45.81
61528;BME280;47395;42.032;-8.634;2024-02-15T09:17:39;75157.41;;;-148.63;45.75
61528;BME280;47395;42.032;-8.634;2024-02-15T09:19:40;75095.41;;;-148.63;45.18
61528;BME280;47395;42.032;-8.634;2024-02-15T09:21:42;75153.41;;;-148.63;45.68
61528;BME280;47395;42.032;-8.634;2024-02-15T09:23:43;75173.41;;;-148.63;45.56
61528;BME280;47395;42.032;-8.634;2024-02-15T09:25:44;75213.41;;;-148.63;45.54
61528;BME280;47395;42.032;-8.634;2024-02-15T09:27:45;75189.41;;;-148.63;45.39
61528;BME280;47395;42.032;-8.634;2024-02-15T09:29:46;75135.41;;;-148.63;43.77
61528;BME280;47395;42.032;-8.634;2024-02-15T09:31:47;75159.41;;;-148.63;43.44
61528;BME280;47395;42.032;-8.634;2024-02-15T09:33:48;75085.41;;;-148.63;42.62
61528;BME280;47395;42.032;-8.634;2024-02-15T09:35:49;75105.41;;;-148.63;43.14
61528;BME280;47395;42.032;-8.634;2024-02-15T09:37:51;75007.38;;;-148.63;42.29
61528;BME280;47395;42.032;-8.634;2024-02-15T09:39:56;74951.38;;;-148.63;41.38
61528;BME280;47395;42.032;-8.634;2024-02-15T09:41:57;74989.38;;;-148.63;41.28
61528;BME280;47395;42.032;-8.634;2024-02-15T09:44:01;74941.38;;;-148.63;40.79
61528;BME280;47395;42.032;-8.634;2024-02-15T09:46:03;75067.38;;;-148.63;42.25
61528;BME280;47395;42.032;-8.634;2024-02-15T09:48:06;75121.41;;;-148.63;42.30
61528;BME280;47395;42.032;-8.634;2024-02-15T09:50:11;75039.38;;;-148.63;41.26
61528;BME280;47395;42.032;-8.634;2024-02-15T09:52:15;75119.41;;;-148.63;42.05
61528;BME280;47395;42.032;-8.634;2024-02-15T09:54:19;75149.41;;;-148.63;42.23
61528;BME280;47395;42.032;-8.634;2024-02-15T09:56:26;75073.41;;;-148.63;41.48
61528;BME280;47395;42.032;-8.634;2024-02-15T09:58:29;74869.38;;;-148.63;39.75
61528;BME280;47395;42.032;-8.634;2024-02-15T10:00:34;74977.38;;;-148.63;40.45
61528;BME280;47395;42.032;-8.634;2024-02-15T10:02:37;75091.41;;;-148.63;41.08
61528;BME280;47395;42.032;-8.634;2024-02-15T10:04:41;75043.38;;;-148.63;40.72
61528;BME280;47395;42.032;-8.634;2024-02-15T10:06:42;74955.38;;;-148.63;39.30
61528;BME280;47395;42.032;-8.634;2024-02-15T10:08:44;75003.38;;;-148.63;40.15
61528;BME280;47395;42.032;-8.634;2024-02-15T10:10:47;74899.38;;;-148.63;39.19
61528;BME280;47395;42.032;-8.634;2024-02-15T10:12:52;74849.34;;;-148.63;38.57
61528;BME280;47395;42.032;-8.634;2024-02-15T10:14:56;74949.38;;;-148.63;39.51
61528;BME280;47395;42.032;-8.634;2024-02-15T10:17:06;75061.38;;;-148.63;39.95
61528;BME280;47395;42.032;-8.634;2024-02-15T10:19:10;75025.38;;;-148.63;39.84
61528;BME280;47395;42.032;-8.634;2024-02-15T10:21:25;75081.41;;;-148.63;41.07
61528;BME280;47395;42.032;-8.634;2024-02-15T10:23:27;75041.38;;;-148.63;40.78
61528;BME280;47395;42.032;-8.634;2024-02-15T10:25:29;74975.38;;;-148.63;40.42
61528;BME280;47395;42.032;-8.634;2024-02-15T10:27:31;74959.38;;;-148.63;39.95
61528;BME280;47395;42.032;-8.634;2024-02-15T10:29:38;74959.38;;;-148.63;39.89